Time;durP1;ratioP1;P1;durP2;ratioP2;P2;SDS_P1;SDS_P2;PMS_P1;PMS_P2;Temp;Humidity;BMP_temperature;BMP_pressure;BME280_temperature;BME280_humidity;BME280_pressure;Samples;Min_cycle;Max_cycle;Signal;HPM_P1;HPM_P2
2020/12/19 00:01:49;;;;;;;7.28;6.30;;;;;;;;;;5022759;28;20187;-85
2020/12/19 00:04:14;;;;;;;7.28;6.30;;;;;;;;;;5024734;28;20422;-82
2020/12/19 00:06:44;;;;;;;6.20;5.60;;;;;;;;;;5021543;28;20182;-85
2020/12/19 00:09:11;;;;;;;8.23;5.80;;;;;;;;;;5035689;28;20453;-85
2020/12/19 00:11:37;;;;;;;6.72;5.82;;;;;;;;;;5020207;28;20217;-83
2020/12/19 00:14:03;;;;;;;7.03;6.13;;;;;;;;;;5039019;28;20717;-85
2020/12/19 00:16:29;;;;;;;6.75;6.05;;;;;;;;;;5038218;28;20266;-84
2020/12/19 00:18:55;;;;;;;9.23;6.35;;;;;;;;;;5034555;28;20178;-86
2020/12/19 00:21:22;;;;;;;8.10;6.60;;;;;;;;;;5044881;28;20249;-84
2020/12/19 00:23:48;;;;;;;7.25;6.32;;;;;;;;;;5043815;28;20205;-85
2020/12/19 00:26:13;;;;;;;6.63;5.70;;;;;;;;;;5043102;28;20178;-84
2020/12/19 00:28:40;;;;;;;6.13;5.43;;;;;;;;;;5044165;28;20925;-88
2020/12/19 00:31:06;;;;;;;6.82;5.85;;;;;;;;;;5036605;28;20452;-84
2020/12/19 00:33:32;;;;;;;6.30;5.50;;;;;;;;;;5045812;28;20235;-85
2020/12/19 00:35:58;;;;;;;6.90;5.67;;;;;;;;;;5044286;28;20186;-85
2020/12/19 00:38:24;;;;;;;7.47;5.90;;;;;;;;;;5025099;28;20433;-85
2020/12/19 00:40:50;;;;;;;9.77;6.73;;;;;;;;;;5024786;28;20480;-85
2020/12/19 00:43:16;;;;;;;8.52;5.78;;;;;;;;;;5044547;28;21060;-86
2020/12/19 00:45:42;;;;;;;7.82;5.45;;;;;;;;;;5025297;28;20169;-85
2020/12/19 00:48:08;;;;;;;5.53;5.00;;;;;;;;;;5022061;28;20190;-85
2020/12/19 00:50:34;;;;;;;5.70;5.10;;;;;;;;;;5027424;28;20463;-85
2020/12/19 00:53:00;;;;;;;6.82;5.15;;;;;;;;;;5045004;28;20436;-86
2020/12/19 00:55:26;;;;;;;6.88;5.07;;;;;;;;;;5038055;28;20165;-85
2020/12/19 00:57:52;;;;;;;6.47;4.63;;;;;;;;;;5044262;28;20181;-87
2020/12/19 01:00:17;;;;;;;10.50;6.80;;;;;;;;;;5021969;28;20436;-85
2020/12/19 01:02:43;;;;;;;6.97;5.00;;;;;;;;;;5040425;28;20437;-86
2020/12/19 01:05:10;;;;;;;7.00;5.55;;;;;;;;;;5043781;28;20806;-84
2020/12/19 01:07:36;;;;;;;7.57;4.95;;;;;;;;;;5025951;28;20200;-85
2020/12/19 01:10:04;;;;;;;6.85;5.45;;;;;;;;;;5044604;28;20198;-86
2020/12/19 01:12:29;;;;;;;12.55;5.15;;;;;;;;;;5041892;28;20236;-84
2020/12/19 01:14:56;;;;;;;7.67;5.50;;;;;;;;;;5037589;28;20183;-83
2020/12/19 01:17:22;;;;;;;9.35;5.60;;;;;;;;;;5041276;28;20433;-86
2020/12/19 01:19:48;;;;;;;5.32;4.60;;;;;;;;;;5044292;28;20193;-85
2020/12/19 01:22:14;;;;;;;7.63;5.70;;;;;;;;;;5038567;28;20177;-85
2020/12/19 01:24:39;;;;;;;7.13;5.13;;;;;;;;;;5025973;28;20174;-84
2020/12/19 01:27:05;;;;;;;6.60;5.80;;;;;;;;;;5043802;28;20554;-84
2020/12/19 01:29:31;;;;;;;7.65;5.50;;;;;;;;;;5043247;28;20452;-85
2020/12/19 01:31:57;;;;;;;5.83;5.23;;;;;;;;;;5042308;28;20213;-85
2020/12/19 01:34:23;;;;;;;5.30;4.70;;;;;;;;;;5037053;28;20424;-84
2020/12/19 01:36:49;;;;;;;6.13;4.97;;;;;;;;;;5026588;28;20440;-85
2020/12/19 01:39:15;;;;;;;6.13;4.80;;;;;;;;;;5021370;28;20178;-85
2020/12/19 01:41:41;;;;;;;5.78;4.60;;;;;;;;;;5025020;28;20190;-85
2020/12/19 01:44:07;;;;;;;10.20;5.28;;;;;;;;;;5040041;28;20186;-84
2020/12/19 01:46:33;;;;;;;6.30;5.70;;;;;;;;;;5041626;28;20185;-88
2020/12/19 01:49:00;;;;;;;9.13;5.27;;;;;;;;;;5040312;28;20189;-85
2020/12/19 01:51:27;;;;;;;4.93;4.43;;;;;;;;;;5041100;28;20464;-85
2020/12/19 01:53:53;;;;;;;6.93;5.85;;;;;;;;;;5038002;28;20273;-85
2020/12/19 01:56:24;;;;;;;5.28;4.78;;;;;;;;;;5037611;28;20177;-85
2020/12/19 01:58:50;;;;;;;6.07;4.68;;;;;;;;;;5042680;28;20371;-85
2020/12/19 02:01:17;;;;;;;6.17;5.57;;;;;;;;;;5040295;28;20174;-84
2020/12/19 02:03:43;;;;;;;6.38;5.43;;;;;;;;;;5045060;28;20420;-85
2020/12/19 02:06:09;;;;;;;5.70;5.00;;;;;;;;;;5020116;28;20182;-85
2020/12/19 02:08:35;;;;;;;7.05;5.80;;;;;;;;;;5021412;28;20445;-85
2020/12/19 02:11:02;;;;;;;11.05;5.00;;;;;;;;;;5040093;28;20221;-84
2020/12/19 02:13:28;;;;;;;7.20;4.80;;;;;;;;;;5025103;28;20293;-84
2020/12/19 02:15:54;;;;;;;6.18;4.82;;;;;;;;;;5042367;28;20186;-86
2020/12/19 02:18:20;;;;;;;6.67;5.20;;;;;;;;;;5021154;28;20182;-85
2020/12/19 02:20:46;;;;;;;7.70;5.37;;;;;;;;;;5024936;28;20841;-84
2020/12/19 02:23:14;;;;;;;7.80;5.82;;;;;;;;;;5038155;28;20472;-86
2020/12/19 02:25:40;;;;;;;8.13;5.28;;;;;;;;;;5039066;28;20186;-84
2020/12/19 02:28:07;;;;;;;5.20;4.20;;;;;;;;;;5022788;28;20194;-84
2020/12/19 02:30:34;;;;;;;6.93;5.03;;;;;;;;;;5023151;28;20198;-84
2020/12/19 02:33:00;;;;;;;7.60;5.50;;;;;;;;;;5020009;28;20189;-87
2020/12/19 02:35:29;;;;;;;6.68;5.25;;;;;;;;;;5025368;28;20178;-84
2020/12/19 02:37:55;;;;;;;8.88;6.43;;;;;;;;;;5041582;28;20182;-84
2020/12/19 02:40:21;;;;;;;5.38;4.88;;;;;;;;;;5036136;28;20205;-85
2020/12/19 02:42:48;;;;;;;7.13;4.88;;;;;;;;;;5023668;28;20178;-84
2020/12/19 02:45:14;;;;;;;7.80;5.40;;;;;;;;;;5019795;28;20190;-85
2020/12/19 02:47:40;;;;;;;6.50;5.80;;;;;;;;;;5042716;28;20184;-85
2020/12/19 02:50:06;;;;;;;8.45;5.95;;;;;;;;;;5038001;28;20206;-84
2020/12/19 02:52:33;;;;;;;6.78;5.13;;;;;;;;;;5030480;28;20182;-83
2020/12/19 02:54:59;;;;;;;5.20;4.68;;;;;;;;;;5017382;28;20284;-85
2020/12/19 02:57:25;;;;;;;5.95;5.35;;;;;;;;;;5041783;28;20654;-85
2020/12/19 02:59:51;;;;;;;5.28;4.78;;;;;;;;;;5019586;28;20212;-84
2020/12/19 03:02:17;;;;;;;6.40;5.50;;;;;;;;;;5024827;28;20220;-84
2020/12/19 03:04:43;;;;;;;5.55;4.53;;;;;;;;;;5041999;28;20436;-84
2020/12/19 03:07:09;;;;;;;8.43;6.23;;;;;;;;;;5040149;28;20173;-85
2020/12/19 03:09:35;;;;;;;5.63;5.03;;;;;;;;;;5036858;28;20404;-85
2020/12/19 03:12:03;;;;;;;7.65;5.00;;;;;;;;;;5018522;28;20469;-85
2020/12/19 03:14:29;;;;;;;6.60;4.82;;;;;;;;;;5043061;28;20228;-85
2020/12/19 03:16:55;;;;;;;5.70;4.50;;;;;;;;;;5040302;28;20291;-85
2020/12/19 03:19:20;;;;;;;7.07;4.27;;;;;;;;;;5037347;28;20425;-85
2020/12/19 03:21:46;;;;;;;5.30;4.80;;;;;;;;;;5023312;28;20467;-84
2020/12/19 03:24:13;;;;;;;4.83;4.33;;;;;;;;;;5033688;28;20437;-85
2020/12/19 03:26:38;;;;;;;5.32;4.53;;;;;;;;;;5032692;28;20449;-86
2020/12/19 03:29:04;;;;;;;9.50;4.37;;;;;;;;;;5039528;28;20181;-85
2020/12/19 03:31:30;;;;;;;6.00;4.00;;;;;;;;;;5036859;28;20535;-86
2020/12/19 03:33:56;;;;;;;5.90;4.30;;;;;;;;;;5025771;28;20417;-84
2020/12/19 03:36:22;;;;;;;4.60;4.17;;;;;;;;;;5019158;28;20228;-86
2020/12/19 03:38:48;;;;;;;7.40;4.00;;;;;;;;;;5019561;28;20452;-85
2020/12/19 03:41:14;;;;;;;5.43;4.87;;;;;;;;;;5042598;28;20440;-84
2020/12/19 03:43:40;;;;;;;7.73;4.33;;;;;;;;;;5033635;28;20469;-84
2020/12/19 03:46:06;;;;;;;6.90;5.10;;;;;;;;;;5021923;28;20455;-85
2020/12/19 03:48:32;;;;;;;5.28;4.03;;;;;;;;;;5024616;28;20440;-85
2020/12/19 03:50:58;;;;;;;6.30;4.80;;;;;;;;;;5022673;28;20217;-85
2020/12/19 03:53:24;;;;;;;4.30;3.90;;;;;;;;;;5023696;28;20504;-84
2020/12/19 03:55:50;;;;;;;6.88;4.35;;;;;;;;;;5049642;28;20197;-85
2020/12/19 03:58:16;;;;;;;5.10;3.72;;;;;;;;;;5025512;28;20261;-85
2020/12/19 04:00:42;;;;;;;5.37;4.87;;;;;;;;;;5046764;28;20676;-85
2020/12/19 04:03:08;;;;;;;4.53;3.83;;;;;;;;;;5041889;28;20479;-89
2020/12/19 04:05:34;;;;;;;5.90;4.47;;;;;;;;;;5024501;28;20253;-85
2020/12/19 04:08:00;;;;;;;5.78;4.72;;;;;;;;;;5043668;28;20453;-82
2020/12/19 04:10:26;;;;;;;7.40;4.17;;;;;;;;;;5040319;28;20270;-84
2020/12/19 04:12:52;;;;;;;5.03;3.95;;;;;;;;;;5044730;28;20471;-84
2020/12/19 04:15:24;;;;;;;5.00;4.30;;;;;;;;;;5039648;28;20185;-85
2020/12/19 04:17:53;;;;;;;5.78;4.45;;;;;;;;;;5039396;28;20464;-82
2020/12/19 04:20:19;;;;;;;5.20;4.13;;;;;;;;;;5026343;28;20181;-84
2020/12/19 04:22:45;;;;;;;5.28;4.13;;;;;;;;;;5041653;28;20273;-84
2020/12/19 04:25:12;;;;;;;5.03;4.05;;;;;;;;;;5043449;28;20190;-85
2020/12/19 04:27:39;;;;;;;5.18;4.05;;;;;;;;;;5022649;28;20264;-84
2020/12/19 04:30:05;;;;;;;8.48;4.30;;;;;;;;;;5036237;28;20248;-85
2020/12/19 04:32:31;;;;;;;5.85;4.15;;;;;;;;;;5024880;28;20263;-85
2020/12/19 04:34:57;;;;;;;7.70;4.43;;;;;;;;;;5024146;28;20202;-84
2020/12/19 04:37:23;;;;;;;7.88;4.88;;;;;;;;;;5039248;28;20451;-84
2020/12/19 04:39:49;;;;;;;5.95;4.88;;;;;;;;;;5028335;28;20177;-83
2020/12/19 04:42:15;;;;;;;5.25;3.90;;;;;;;;;;5021473;28;20176;-84
2020/12/19 04:44:42;;;;;;;5.00;3.85;;;;;;;;;;5023361;28;20178;-84
2020/12/19 04:47:08;;;;;;;4.22;3.83;;;;;;;;;;5043418;28;20407;-85
2020/12/19 04:49:34;;;;;;;3.77;3.37;;;;;;;;;;5026157;28;20195;-85
2020/12/19 04:52:00;;;;;;;5.68;4.22;;;;;;;;;;5044550;28;20463;-86
2020/12/19 04:54:26;;;;;;;5.50;4.33;;;;;;;;;;5019293;28;20561;-85
2020/12/19 04:56:55;;;;;;;6.20;4.30;;;;;;;;;;5037435;28;20433;-84
2020/12/19 04:59:21;;;;;;;7.75;3.92;;;;;;;;;;5022757;28;20448;-84
2020/12/19 05:01:47;;;;;;;5.13;4.40;;;;;;;;;;5025805;28;20190;-84
2020/12/19 05:04:13;;;;;;;4.78;4.22;;;;;;;;;;5039480;28;20428;-85
2020/12/19 05:06:39;;;;;;;4.43;4.03;;;;;;;;;;5040433;28;20173;-85
2020/12/19 05:09:05;;;;;;;5.75;3.78;;;;;;;;;;5042454;28;20220;-85
2020/12/19 05:11:31;;;;;;;6.18;4.88;;;;;;;;;;5022670;28;20218;-84
2020/12/19 05:13:57;;;;;;;3.80;3.40;;;;;;;;;;5024023;28;20336;-84
2020/12/19 05:16:23;;;;;;;5.80;3.33;;;;;;;;;;5044677;28;20196;-83
2020/12/19 05:18:49;;;;;;;5.43;3.50;;;;;;;;;;5043739;28;20174;-84
2020/12/19 05:21:15;;;;;;;7.30;3.50;;;;;;;;;;5037467;28;20200;-85
2020/12/19 05:23:43;;;;;;;3.83;3.40;;;;;;;;;;5022439;28;20250;-85
2020/12/19 05:26:10;;;;;;;3.65;3.28;;;;;;;;;;5023738;28;20686;-85
2020/12/19 05:28:37;;;;;;;5.30;3.63;;;;;;;;;;5042071;28;20201;-85
2020/12/19 05:31:03;;;;;;;4.05;3.00;;;;;;;;;;5026992;28;20220;-84
2020/12/19 05:33:34;;;;;;;3.95;3.17;;;;;;;;;;5037808;28;20186;-84
2020/12/19 05:36:00;;;;;;;3.13;2.83;;;;;;;;;;5026025;28;20201;-84
2020/12/19 05:38:29;;;;;;;5.20;3.10;;;;;;;;;;5043355;28;20192;-85
2020/12/19 05:40:55;;;;;;;3.50;3.20;;;;;;;;;;5041650;28;20186;-82
2020/12/19 05:43:21;;;;;;;6.38;3.20;;;;;;;;;;5040054;28;20186;-84
2020/12/19 05:45:48;;;;;;;3.63;2.72;;;;;;;;;;5025319;28;20181;-85
2020/12/19 05:48:14;;;;;;;3.80;3.08;;;;;;;;;;5042934;28;20182;-85
2020/12/19 05:50:41;;;;;;;2.53;2.33;;;;;;;;;;5039467;28;20289;-83
2020/12/19 05:53:08;;;;;;;4.32;2.55;;;;;;;;;;5024470;28;20549;-85
2020/12/19 05:55:35;;;;;;;2.45;2.25;;;;;;;;;;5035325;28;20248;-83
2020/12/19 05:58:01;;;;;;;4.10;2.65;;;;;;;;;;5043071;28;20205;-83
2020/12/19 06:00:28;;;;;;;3.20;2.45;;;;;;;;;;5023009;28;20178;-85
2020/12/19 06:02:56;;;;;;;4.03;2.50;;;;;;;;;;5025347;28;20253;-85
2020/12/19 06:05:24;;;;;;;3.13;2.55;;;;;;;;;;5050222;28;20551;-84
2020/12/19 06:07:50;;;;;;;2.75;2.55;;;;;;;;;;5023215;28;20247;-85
2020/12/19 06:10:19;;;;;;;3.10;2.28;;;;;;;;;;5043453;28;20205;-85
2020/12/19 06:12:53;;;;;;;4.47;2.70;;;;;;;;;;5036145;28;20218;-86
2020/12/19 06:15:25;;;;;;;2.45;2.13;;;;;;;;;;5033633;28;20192;-84
2020/12/19 06:17:53;;;;;;;2.83;2.35;;;;;;;;;;5019775;28;20186;-86
2020/12/19 06:20:20;;;;;;;3.30;3.00;;;;;;;;;;5019396;28;20194;-85
2020/12/19 06:22:46;;;;;;;2.20;2.00;;;;;;;;;;5041391;28;20205;-86
2020/12/19 06:25:12;;;;;;;3.10;2.60;;;;;;;;;;5022078;28;20194;-86
2020/12/19 06:27:39;;;;;;;2.80;2.43;;;;;;;;;;5036975;28;20193;-85
2020/12/19 06:30:05;;;;;;;2.85;2.30;;;;;;;;;;5019950;28;20920;-86
2020/12/19 06:32:32;;;;;;;2.72;2.42;;;;;;;;;;5022657;28;20183;-86
2020/12/19 06:34:59;;;;;;;2.42;2.22;;;;;;;;;;5039119;28;20197;-86
2020/12/19 06:37:28;;;;;;;2.95;2.58;;;;;;;;;;5043211;28;20647;-86
2020/12/19 06:40:07;;;;;;;2.70;2.50;;;;;;;;;;5025079;28;20190;-90
2020/12/19 06:42:33;;;;;;;3.83;2.33;;;;;;;;;;5026514;28;20244;-87
2020/12/19 06:45:18;;;;;;;4.13;1.93;;;;;;;;;;5024157;28;20201;-84
2020/12/19 06:47:44;;;;;;;3.67;2.90;;;;;;;;;;5038490;28;20444;-83
2020/12/19 06:50:10;;;;;;;3.50;2.50;;;;;;;;;;5041666;28;20205;-80
2020/12/19 06:52:37;;;;;;;2.73;2.10;;;;;;;;;;5041525;28;20440;-84
2020/12/19 06:55:18;;;;;;;8.25;2.38;;;;;;;;;;5021259;28;20426;-84
2020/12/19 06:57:50;;;;;;;1.80;1.70;;;;;;;;;;5036093;28;20178;-82
2020/12/19 07:00:19;;;;;;;2.50;1.92;;;;;;;;;;5042488;28;20174;-84
2020/12/19 07:02:52;;;;;;;4.68;2.45;;;;;;;;;;5041480;28;20473;-84
2020/12/19 07:05:29;;;;;;;3.78;2.25;;;;;;;;;;5031419;28;20184;-83
2020/12/19 07:08:14;;;;;;;2.38;1.92;;;;;;;;;;5041224;28;20204;-85
2020/12/19 07:10:40;;;;;;;2.28;2.00;;;;;;;;;;5019506;28;20273;-84
2020/12/19 07:13:06;;;;;;;1.90;1.80;;;;;;;;;;5021932;28;20229;-84
2020/12/19 07:15:41;;;;;;;2.33;2.10;;;;;;;;;;5021720;28;20490;-83
2020/12/19 07:18:23;;;;;;;3.35;2.40;;;;;;;;;;5019965;28;20197;-83
2020/12/19 07:20:56;;;;;;;3.05;1.85;;;;;;;;;;5025088;28;20190;-84
2020/12/19 07:23:22;;;;;;;4.07;1.98;;;;;;;;;;5040917;28;20275;-85
2020/12/19 07:25:48;;;;;;;2.60;2.03;;;;;;;;;;5025561;28;20186;-84
2020/12/19 07:28:15;;;;;;;3.37;1.90;;;;;;;;;;5026441;28;20421;-86
2020/12/19 07:30:41;;;;;;;4.55;2.10;;;;;;;;;;5045381;28;20463;-82
2020/12/19 07:33:09;;;;;;;8.38;2.83;;;;;;;;;;5040657;28;20236;-84
2020/12/19 07:35:36;;;;;;;4.57;1.98;;;;;;;;;;5044391;28;20190;-83
2020/12/19 07:38:02;;;;;;;1.92;1.80;;;;;;;;;;5045990;28;20182;-83
2020/12/19 07:40:28;;;;;;;2.28;2.08;;;;;;;;;;5043625;28;20412;-86
2020/12/19 07:43:01;;;;;;;13.02;9.63;;;;;;;;;;5041234;28;20197;-85
2020/12/19 07:45:27;;;;;;;12.30;10.45;;;;;;;;;;5040849;28;20213;-87
2020/12/19 07:47:54;;;;;;;6.30;5.38;;;;;;;;;;5039711;28;20515;-86
2020/12/19 07:50:26;;;;;;;2.75;2.45;;;;;;;;;;5027068;28;20272;-88
2020/12/19 07:53:00;;;;;;;10.15;9.15;;;;;;;;;;5026723;28;20186;-84
2020/12/19 07:55:26;;;;;;;6.18;4.90;;;;;;;;;;5044914;28;20213;-81
2020/12/19 07:57:55;;;;;;;21.40;17.02;;;;;;;;;;5030974;28;20191;-80
2020/12/19 08:00:22;;;;;;;35.65;26.17;;;;;;;;;;5038130;28;20265;-79
2020/12/19 08:02:48;;;;;;;16.20;13.50;;;;;;;;;;5045138;28;20186;-81
2020/12/19 08:05:14;;;;;;;43.30;27.60;;;;;;;;;;5037300;28;20249;-81
2020/12/19 08:07:40;;;;;;;19.52;14.25;;;;;;;;;;5042285;28;20189;-80
2020/12/19 08:10:07;;;;;;;70.43;43.35;;;;;;;;;;5043513;28;20178;-81
2020/12/19 08:12:33;;;;;;;28.25;17.33;;;;;;;;;;5025168;28;20289;-80
2020/12/19 08:15:04;;;;;;;30.58;17.52;;;;;;;;;;5022719;28;20188;-80
2020/12/19 08:17:32;;;;;;;14.63;8.88;;;;;;;;;;5016412;28;20188;-80
2020/12/19 08:19:59;;;;;;;18.38;11.75;;;;;;;;;;5040417;28;20249;-81
2020/12/19 08:22:26;;;;;;;9.25;7.00;;;;;;;;;;5036874;28;20174;-79
2020/12/19 08:24:52;;;;;;;20.58;12.13;;;;;;;;;;5026880;28;20260;-80
2020/12/19 08:27:35;;;;;;;31.52;17.23;;;;;;;;;;5025075;28;20303;-80
2020/12/19 08:30:12;;;;;;;22.10;13.52;;;;;;;;;;5036367;28;20186;-80
2020/12/19 08:32:42;;;;;;;24.90;15.45;;;;;;;;;;5035742;28;20272;-81
2020/12/19 08:35:08;;;;;;;24.13;13.63;;;;;;;;;;5035030;28;20197;-79
2020/12/19 08:37:34;;;;;;;31.98;18.08;;;;;;;;;;5044099;28;20178;-80
2020/12/19 08:40:03;;;;;;;52.13;27.88;;;;;;;;;;5027248;28;20185;-83
2020/12/19 08:42:32;;;;;;;22.95;11.10;;;;;;;;;;5034371;28;20289;-81
2020/12/19 08:45:12;;;;;;;46.67;23.95;;;;;;;;;;5021419;28;20206;-80
2020/12/19 08:47:40;;;;;;;25.70;13.43;;;;;;;;;;5023175;28;20178;-80
2020/12/19 08:50:06;;;;;;;109.63;39.00;;;;;;;;;;5041325;28;20228;-81
2020/12/19 08:52:32;;;;;;;407.92;175.48;;;;;;;;;;5026359;28;20182;-80
2020/12/19 08:54:59;;;;;;;136.68;58.75;;;;;;;;;;5019017;28;20182;-80
2020/12/19 08:57:28;;;;;;;259.52;92.93;;;;;;;;;;5023960;28;20177;-80
2020/12/19 09:00:08;;;;;;;651.08;287.75;;;;;;;;;;5037141;28;20561;-80
2020/12/19 09:02:37;;;;;;;131.77;54.30;;;;;;;;;;5021372;28;20184;-80
2020/12/19 09:05:03;;;;;;;89.10;42.33;;;;;;;;;;5022333;28;20196;-79
2020/12/19 09:07:29;;;;;;;102.88;59.13;;;;;;;;;;5041440;28;20292;-79
2020/12/19 09:09:55;;;;;;;205.80;113.13;;;;;;;;;;5023024;28;20527;-79
2020/12/19 09:12:23;;;;;;;69.22;41.25;;;;;;;;;;5016558;28;20440;-78
2020/12/19 09:14:49;;;;;;;41.13;25.15;;;;;;;;;;5033299;28;20190;-78
2020/12/19 09:17:28;;;;;;;27.75;19.02;;;;;;;;;;5034164;28;20178;-79
2020/12/19 09:20:04;;;;;;;10.68;7.90;;;;;;;;;;5033911;28;20185;-78
2020/12/19 09:22:30;;;;;;;11.38;9.52;;;;;;;;;;5034721;28;20226;-79
2020/12/19 09:24:56;;;;;;;13.60;8.63;;;;;;;;;;5027204;28;20247;-80
2020/12/19 09:27:22;;;;;;;31.73;22.90;;;;;;;;;;5021287;28;20185;-79
2020/12/19 09:29:48;;;;;;;29.03;18.93;;;;;;;;;;5024705;28;20182;-79
2020/12/19 09:32:14;;;;;;;8.18;6.68;;;;;;;;;;5043450;28;20471;-80
2020/12/19 09:34:40;;;;;;;20.20;14.33;;;;;;;;;;5023888;28;20186;-78
2020/12/19 09:37:06;;;;;;;23.80;13.88;;;;;;;;;;5047866;28;20409;-78
2020/12/19 09:39:32;;;;;;;19.75;16.95;;;;;;;;;;5019007;28;20185;-78
2020/12/19 09:41:58;;;;;;;12.82;10.60;;;;;;;;;;5038754;28;20225;-78
2020/12/19 09:44:24;;;;;;;8.17;7.27;;;;;;;;;;5024353;28;20582;-78
2020/12/19 09:46:50;;;;;;;10.77;7.90;;;;;;;;;;5039451;28;20532;-77
2020/12/19 09:49:16;;;;;;;9.50;7.20;;;;;;;;;;5023453;28;20441;-78
2020/12/19 09:51:42;;;;;;;17.70;10.50;;;;;;;;;;5037106;28;20457;-79
2020/12/19 09:54:08;;;;;;;9.57;6.95;;;;;;;;;;5020835;28;20444;-79
2020/12/19 09:56:37;;;;;;;14.07;9.52;;;;;;;;;;5036604;28;20589;-79
2020/12/19 09:59:04;;;;;;;5.65;4.72;;;;;;;;;;5022577;28;20724;-79
2020/12/19 10:01:30;;;;;;;6.25;5.25;;;;;;;;;;5024558;28;20595;-80
2020/12/19 10:03:56;;;;;;;5.63;4.38;;;;;;;;;;5032087;28;20250;-79
2020/12/19 10:06:22;;;;;;;8.25;6.18;;;;;;;;;;5019768;28;20208;-78
2020/12/19 10:08:48;;;;;;;10.07;6.70;;;;;;;;;;5021953;28;20212;-78
2020/12/19 10:11:14;;;;;;;14.67;9.50;;;;;;;;;;5023475;28;20968;-79
2020/12/19 10:13:40;;;;;;;11.38;7.25;;;;;;;;;;5040388;28;20535;-78
2020/12/19 10:16:06;;;;;;;14.90;7.13;;;;;;;;;;5038002;28;20197;-79
2020/12/19 10:18:32;;;;;;;4.75;4.35;;;;;;;;;;5021925;28;20178;-79
2020/12/19 10:20:58;;;;;;;7.57;5.40;;;;;;;;;;5024821;28;20220;-77
2020/12/19 10:23:25;;;;;;;4.57;3.88;;;;;;;;;;5041207;28;20194;-77
2020/12/19 10:25:51;;;;;;;17.00;8.52;;;;;;;;;;5023416;28;20185;-77
2020/12/19 10:28:17;;;;;;;7.15;4.60;;;;;;;;;;5035714;28;20188;-76
2020/12/19 10:30:43;;;;;;;4.67;4.30;;;;;;;;;;5036638;28;20228;-78
2020/12/19 10:33:09;;;;;;;6.27;5.67;;;;;;;;;;5040608;28;20444;-80
2020/12/19 10:35:35;;;;;;;11.43;10.23;;;;;;;;;;5039161;28;20448;-77
2020/12/19 10:38:01;;;;;;;5.27;4.43;;;;;;;;;;5019811;28;20193;-78
2020/12/19 10:40:27;;;;;;;6.50;5.33;;;;;;;;;;5024113;28;20435;-77
2020/12/19 10:42:52;;;;;;;7.40;6.35;;;;;;;;;;5042135;28;20436;-79
2020/12/19 10:45:18;;;;;;;10.80;3.90;;;;;;;;;;5019702;28;20240;-79
2020/12/19 10:47:44;;;;;;;3.23;2.93;;;;;;;;;;5024830;28;20656;-78
2020/12/19 10:50:10;;;;;;;4.80;4.13;;;;;;;;;;5041172;28;20439;-79
2020/12/19 10:52:36;;;;;;;6.28;4.00;;;;;;;;;;5035925;28;20216;-78
2020/12/19 10:55:02;;;;;;;4.07;3.40;;;;;;;;;;5017548;28;20178;-78
2020/12/19 10:57:29;;;;;;;4.78;3.53;;;;;;;;;;5031021;28;21031;-79
2020/12/19 10:59:55;;;;;;;3.17;2.60;;;;;;;;;;5018805;28;20201;-81
2020/12/19 11:02:21;;;;;;;4.47;3.10;;;;;;;;;;5048768;28;20182;-77
2020/12/19 11:04:48;;;;;;;4.32;2.97;;;;;;;;;;5049292;28;20194;-78
2020/12/19 11:07:14;;;;;;;6.33;2.67;;;;;;;;;;5043161;28;20183;-77
2020/12/19 11:09:40;;;;;;;3.28;2.97;;;;;;;;;;5047682;28;20424;-77
2020/12/19 11:12:06;;;;;;;7.80;3.27;;;;;;;;;;5044123;28;20225;-79
2020/12/19 11:14:32;;;;;;;3.60;3.07;;;;;;;;;;5027716;28;21193;-79
2020/12/19 11:16:58;;;;;;;3.90;3.50;;;;;;;;;;5028715;28;20881;-79
2020/12/19 11:19:24;;;;;;;4.05;3.63;;;;;;;;;;5030996;28;20174;-79
2020/12/19 11:21:50;;;;;;;3.70;3.25;;;;;;;;;;5044025;28;20717;-79
2020/12/19 11:24:16;;;;;;;4.10;2.60;;;;;;;;;;5025953;28;20177;-79
2020/12/19 11:26:42;;;;;;;3.17;2.53;;;;;;;;;;5030700;28;20193;-78
2020/12/19 11:29:10;;;;;;;3.13;2.60;;;;;;;;;;5047100;28;20444;-79
2020/12/19 11:31:36;;;;;;;3.22;2.08;;;;;;;;;;5043237;28;20467;-78
2020/12/19 11:34:02;;;;;;;6.15;3.25;;;;;;;;;;5047852;28;20181;-78
2020/12/19 11:36:28;;;;;;;5.20;2.60;;;;;;;;;;5027367;28;20181;-79
2020/12/19 11:38:54;;;;;;;3.97;3.10;;;;;;;;;;5046802;28;20192;-78
2020/12/19 11:41:26;;;;;;;2.75;2.55;;;;;;;;;;5043433;28;20474;-79
2020/12/19 11:43:53;;;;;;;4.03;2.30;;;;;;;;;;5046509;28;20236;-78
2020/12/19 11:46:19;;;;;;;2.80;2.60;;;;;;;;;;5034547;28;20182;-80
2020/12/19 11:48:45;;;;;;;2.50;2.30;;;;;;;;;;5043006;28;20192;-80
2020/12/19 11:51:12;;;;;;;3.83;2.75;;;;;;;;;;5048007;28;20204;-78
2020/12/19 11:53:38;;;;;;;3.80;3.50;;;;;;;;;;5026961;28;20212;-78
2020/12/19 11:56:04;;;;;;;5.85;3.10;;;;;;;;;;5032028;28;20178;-79
2020/12/19 11:58:30;;;;;;;4.20;2.80;;;;;;;;;;5040186;28;20193;-78
2020/12/19 12:00:56;;;;;;;4.78;4.13;;;;;;;;;;5048205;28;20181;-78
2020/12/19 12:03:22;;;;;;;2.77;2.53;;;;;;;;;;5030924;28;20177;-77
2020/12/19 12:05:48;;;;;;;2.25;2.05;;;;;;;;;;5030387;28;20458;-78
2020/12/19 12:08:14;;;;;;;4.60;2.90;;;;;;;;;;5044497;28;20201;-78
2020/12/19 12:10:40;;;;;;;6.60;2.90;;;;;;;;;;5044816;28;20227;-78
2020/12/19 12:13:06;;;;;;;2.63;2.40;;;;;;;;;;5039081;28;20237;-77
2020/12/19 12:15:32;;;;;;;4.65;2.35;;;;;;;;;;5039963;28;20633;-79
2020/12/19 12:17:58;;;;;;;3.33;2.50;;;;;;;;;;5021378;28;20194;-79
2020/12/19 12:20:24;;;;;;;3.80;2.70;;;;;;;;;;5025346;28;20727;-79
2020/12/19 12:22:50;;;;;;;2.80;2.60;;;;;;;;;;5024117;28;20445;-78
2020/12/19 12:25:16;;;;;;;3.70;2.20;;;;;;;;;;5029866;28;20178;-78
2020/12/19 12:27:42;;;;;;;4.82;2.20;;;;;;;;;;5036729;28;20456;-78
2020/12/19 12:30:09;;;;;;;8.02;2.85;;;;;;;;;;5026539;28;20190;-80
2020/12/19 12:32:35;;;;;;;3.40;2.50;;;;;;;;;;5025239;28;20178;-77
2020/12/19 12:35:01;;;;;;;3.58;1.67;;;;;;;;;;5044445;28;20247;-78
2020/12/19 12:37:26;;;;;;;2.15;1.65;;;;;;;;;;5040818;28;20350;-78
2020/12/19 12:39:53;;;;;;;4.40;2.40;;;;;;;;;;5045687;28;20182;-78
2020/12/19 12:42:23;;;;;;;2.88;2.10;;;;;;;;;;5041978;28;20444;-78
2020/12/19 12:44:49;;;;;;;2.67;1.60;;;;;;;;;;5025553;28;20179;-79
2020/12/19 12:47:16;;;;;;;4.63;2.60;;;;;;;;;;5020949;28;20194;-78
2020/12/19 12:49:42;;;;;;;4.95;2.63;;;;;;;;;;5027752;28;20221;-79
2020/12/19 12:52:08;;;;;;;3.83;2.10;;;;;;;;;;5041758;28;20724;-78
2020/12/19 12:54:34;;;;;;;2.38;1.88;;;;;;;;;;5037079;28;20181;-77
2020/12/19 12:57:00;;;;;;;2.80;2.30;;;;;;;;;;5037316;28;20244;-77
2020/12/19 12:59:26;;;;;;;3.72;2.25;;;;;;;;;;5026823;28;20194;-77
2020/12/19 13:01:52;;;;;;;5.30;3.03;;;;;;;;;;5039981;28;20201;-77
2020/12/19 13:04:18;;;;;;;4.25;2.72;;;;;;;;;;5034573;28;20627;-77
2020/12/19 13:06:44;;;;;;;4.50;2.65;;;;;;;;;;5036470;28;20180;-77
2020/12/19 13:09:10;;;;;;;4.37;3.03;;;;;;;;;;5017960;28;20221;-77
2020/12/19 13:11:36;;;;;;;5.80;4.90;;;;;;;;;;5024366;28;20496;-78
2020/12/19 13:14:02;;;;;;;7.03;5.05;;;;;;;;;;5042635;28;20471;-78
2020/12/19 13:16:30;;;;;;;5.95;3.95;;;;;;;;;;5039506;28;20208;-77
2020/12/19 13:18:56;;;;;;;12.27;5.90;;;;;;;;;;5042820;28;20209;-77
2020/12/19 13:21:22;;;;;;;8.30;4.83;;;;;;;;;;5036189;28;20190;-79
2020/12/19 13:23:48;;;;;;;10.80;4.60;;;;;;;;;;5038686;28;20441;-78
2020/12/19 13:26:15;;;;;;;11.60;7.07;;;;;;;;;;5043805;28;20213;-77
2020/12/19 13:28:44;;;;;;;13.10;7.47;;;;;;;;;;5038606;28;20510;-77
2020/12/19 13:31:10;;;;;;;18.30;10.82;;;;;;;;;;5043982;28;20201;-78
2020/12/19 13:33:37;;;;;;;6.63;5.13;;;;;;;;;;5021997;28;20280;-77
2020/12/19 13:36:03;;;;;;;8.35;6.70;;;;;;;;;;5027899;28;20192;-77
2020/12/19 13:38:29;;;;;;;19.67;11.23;;;;;;;;;;5021003;28;20236;-77
2020/12/19 13:40:55;;;;;;;6.80;4.80;;;;;;;;;;5023048;28;20679;-80
2020/12/19 13:43:21;;;;;;;12.00;6.57;;;;;;;;;;5025371;28;20425;-78
2020/12/19 13:45:47;;;;;;;23.73;8.85;;;;;;;;;;5043808;28;20874;-77
2020/12/19 13:48:13;;;;;;;12.10;6.17;;;;;;;;;;5043434;28;20229;-77
2020/12/19 13:50:39;;;;;;;15.10;6.77;;;;;;;;;;5038118;28;20495;-77
2020/12/19 13:53:05;;;;;;;9.75;5.57;;;;;;;;;;5024330;28;20441;-77
2020/12/19 13:55:31;;;;;;;23.30;13.70;;;;;;;;;;5034003;28;20604;-77
2020/12/19 13:57:57;;;;;;;20.65;11.95;;;;;;;;;;5044046;28;20458;-78
2020/12/19 14:00:24;;;;;;;22.90;12.30;;;;;;;;;;5020022;28;20192;-77
2020/12/19 14:02:50;;;;;;;20.77;10.48;;;;;;;;;;5025123;28;20268;-77
2020/12/19 14:05:16;;;;;;;6.72;4.97;;;;;;;;;;5040125;28;20490;-79
2020/12/19 14:07:42;;;;;;;9.80;7.17;;;;;;;;;;5038658;28;20198;-78
2020/12/19 14:10:08;;;;;;;9.25;5.13;;;;;;;;;;5038981;28;20416;-78
2020/12/19 14:12:36;;;;;;;20.27;12.50;;;;;;;;;;5024938;28;20240;-77
2020/12/19 14:15:02;;;;;;;10.63;5.55;;;;;;;;;;5039917;28;20440;-77
2020/12/19 14:17:28;;;;;;;8.98;3.80;;;;;;;;;;5041627;28;20185;-77
2020/12/19 14:19:54;;;;;;;8.17;6.30;;;;;;;;;;5022864;28;20183;-77
2020/12/19 14:22:20;;;;;;;9.97;5.67;;;;;;;;;;5043161;28;20866;-77
2020/12/19 14:24:46;;;;;;;8.10;5.10;;;;;;;;;;5042068;28;20439;-77
2020/12/19 14:27:12;;;;;;;5.35;2.50;;;;;;;;;;5023204;28;20491;-77
2020/12/19 14:29:38;;;;;;;12.40;6.50;;;;;;;;;;5035171;28;20194;-77
2020/12/19 14:32:04;;;;;;;8.10;3.85;;;;;;;;;;5042621;28;20579;-77
2020/12/19 14:34:30;;;;;;;9.37;3.57;;;;;;;;;;5037973;28;20198;-76
2020/12/19 14:36:56;;;;;;;18.37;8.50;;;;;;;;;;5023088;28;20455;-77